Weather observations for the past three days for
Fort Myers, Southwest Florida International Airport
Metric (Imperial)
Date Time (edt) Wind (kph) Vis. (km) Weather Sky Cond. Temperature (ºC) Relative Humidity Wind Chill (°C) Heat Index (°C) Pressure Precipitation (cm)
Air Dwpt 6 hour altimeter (cm) sea level (mb) 1 hr 3 hr 6 hr
Max. Min.
06 01:53 Calm 16.09 Fair CLR 25 23.3 29.4 24.4 90% 26 76 1012.7 0.56
06 00:53 S 7 16.09 Fair CLR 24.4 23.3 94% 24 76.02 1013.2
05 23:53 SE 9 16.09 Fair CLR 24.4 23.3 94% 24 76.05 1013.5
05 22:53 S 7 16.09 Fair CLR 25 23.9 94% 26 76.07 1013.9 0.56
05 21:53 SE 9 11.27 Light Rain SCT028 OVC036 25 23.3 90% 26 76.12 1014.4 0.56
05 20:53 E 26 G 35 16.09 Partly Cloudy FEW020 SCT043 27.2 23.9 82% 30 76.05 1013.7
05 19:53 W 6 16.09 Thunderstorm in Vicinity CLR 29.4 26.1 33.3 26.1 82% 36 76 1012.7 0.3
05 18:53 W 6 16.09 Partly Cloudy FEW065 SCT100 30 25 75% 36 75.97 1012.6
05 17:53 W 9 16.09 Thunderstorm FEW090 SCT110 27.2 23.9 82% 30 75.95 1012.1
05 16:53 SW 13 4.02 Thunderstorm Heavy Rain FEW031 BKN080 OVC100 26.1 22.8 82% 28 75.95 1012.3 0.3 0.3
05 13:53 Calm 16.09 Thunderstorm in Vicinity FEW046 33.3 23.3 33.3 26.1 56% 39 76.02 1013.2
05 12:53 SW 13 16.09 Partly Cloudy FEW042 SCT050 32.2 23.9 62% 38 76.07 1013.9
05 11:53 SW 9 16.09 Partly Cloudy SCT030 32.2 24.4 63% 39 76.12 1014.7
05 10:53 Calm 16.09 Fair CLR 31.1 24.4 68% 37 76.15 1015.0
05 09:53 S 7 16.09 Fair CLR 30 24.4 72% 36 76.15 1014.8
05 08:53 S 6 16.09 Fair CLR 27.8 25 85% 32 76.15 1014.9
05 07:53 Calm 16.09 Fair CLR 26.1 24.4 26.1 25.6 90% 28 76.1 1014.3
05 06:53 S 6 16.09 Fair CLR 26.1 24.4 90% 28 76.07 1013.8
05 05:53 Calm 16.09 Fair CLR 26.1 24.4 90% 28 76.05 1013.7
05 04:53 Calm 16.09 Fair CLR 26.1 24.4 90% 28 76.02 1013.3
05 03:53 Calm 16.09 Fair CLR 26.1 24.4 90% 28 76.05 1013.5
05 02:53 Calm 16.09 Partly Cloudy SCT040 26.1 24.4 90% 28 76.07 1014.0
05 01:53 E 6 16.09 Fair CLR 26.1 25 30.6 26.1 94% 28 76.12 1014.5
05 00:53 SE 6 16.09 Fair CLR 26.7 24.4 87% 30 76.15 1015.0
04 23:53 E 6 16.09 Fair CLR 26.7 25 90% 30 76.15 1014.9
04 22:53 NE 9 16.09 A Few Clouds FEW026 27.2 25 88% 31 76.17 1015.3
04 21:53 S 11 16.09 A Few Clouds FEW039 28.9 26.1 85% 36 76.2 1015.5
04 20:53 W 9 16.09 Fair CLR 30.6 25 72% 37 76.12 1014.7
04 19:53 Calm 16.09 Fair CLR 30.6 24.4 33.3 28.9 70% 36 76.1 1014.1
04 18:53 SE 6 16.09 Fair CLR 31.1 22.8 61% 35 76.05 1013.4
04 17:53 SE 22 G 33 16.09 Thunderstorm SCT039 31.1 23.3 63% 36 76.07 1013.8
04 16:53 SW 7 16.09 Fair CLR 32.2 24.4 63% 39 76.05 1013.7
04 15:53 SW 17 16.09 Fair CLR 32.2 24.4 63% 39 76.1 1014.1
04 14:53 SW 15 16.09 Fair CLR 32.8 23.9 59% 39 76.12 1014.4
04 13:53 SW 17 16.09 Fair CLR 32.8 23.9 32.8 25.6 59% 39 76.17 1015.1
04 12:53 SW 19 16.09 Fair CLR 32.8 24.4 61% 39 76.2 1015.5
04 11:53 SW 13 16.09 Thunderstorm in Vicinity FEW100 31.7 25.6 70% 40 76.25 1016.4
04 10:53 S 11 16.09 Mostly Cloudy BKN024 31.1 25.6 73% 39 76.23 1015.9
04 09:53 S 13 16.09 Fair CLR 29.4 26.1 82% 36 76.2 1015.6
04 08:53 SE 7 16.09 Fair CLR 27.8 25.6 88% 33 76.17 1015.1
04 07:53 SE 6 16.09 Fair CLR 25.6 25 26.1 25 97% 27 76.15 1014.9
04 06:53 SE 6 16.09 Fair CLR 25.6 25 97% 27 76.12 1014.4
04 05:53 Calm 16.09 Fair CLR 25 24.4 96% 25 76.05 1013.6
04 04:53 E 6 16.09 Fair CLR 25.6 25 97% 27 76.02 1013.4
04 03:53 E 6 16.09 Fair CLR 25.6 25 97% 27 76.02 1013.3
04 02:53 E 6 16.09 Fair CLR 25.6 25 97% 27 76.05 1013.5
04 01:53 Calm 16.09 Fair CLR 25.6 25 28.3 25.6 97% 27 76.07 1013.8
04 00:53 SE 7 16.09 Fair CLR 26.1 25 94% 28 76.07 1014.0
03 23:53 Calm 16.09 Fair CLR 26.1 25 94% 28 76.12 1014.4
03 22:53 E 6 16.09 Fair CLR 26.7 24.4 87% 30 76.1 1014.4
03 21:53 E 11 16.09 A Few Clouds FEW024 FEW037 26.7 24.4 87% 30 76.12 1014.5
03 20:53 E 9 16.09 Fair CLR 27.2 25 88% 31 76.07 1013.9
03 19:53 NE 11 16.09 Fair CLR 28.3 24.4 32.2 28.3 79% 33 76.02 1013.4
03 18:53 SW 9 16.09 Fair CLR 30.6 24.4 70% 36 76.02 1013.3
03 17:53 SW 13 16.09 Partly Cloudy SCT030 31.1 24.4 68% 37 76 1012.8
03 16:53 SW 15 16.09 A Few Clouds FEW030 31.1 24.4 68% 37 75.95 1012.2
03 15:53 W 20 16.09 Fair CLR 31.7 24.4 65% 38 75.97 1012.6
03 14:53 SW 20 16.09 Fair CLR 32.2 23.9 62% 38 76 1012.9
03 13:53 SW 19 16.09 A Few Clouds FEW038 32.2 23.3 59% 37 76.05 1013.5
03 11:53 S 15 16.09 A Few Clouds FEW100 0 0 0% 76.12 1014.7
03 10:53 S 17 16.09 Partly Cloudy FEW080 SCT095 27.8 26.1 90% 33 76.15 1014.8
03 09:53 S 15 1.21 Fog/Mist FEW080 SCT095 BKN110 27.8 25.6 88% 33 76.1 1014.2
03 08:53 S 19 16.09 Mostly Cloudy BKN110 27.2 25.6 91% 31 76.12 1014.4
03 07:53 SE 13 16.09 Fair CLR 25.6 24.4 25.6 25 93% 27 76.1 1014.1
03 06:53 E 6 16.09 Fair CLR 25 24.4 96% 25 76.02 1013.2
03 05:53 Calm 16.09 Fair CLR 25 24.4 96% 25 76 1012.8
03 04:53 SE 6 16.09 Fair CLR 25 24.4 96% 25 75.97 1012.5
03 03:53 E 9 16.09 A Few Clouds FEW004 25 24.4 96% 25 75.97 1012.7
03 02:53 E 6 16.09 Mostly Cloudy BKN005 25.6 24.4 93% 27 76.02 1013.1
Date Time (edt) Wind (kph) Vis. (km) Weather Sky Cond. Air Dwpt Max. Min. Relative Humidity Wind Chill (°C) Heat Index (°C) altimeter (cm) sea level (mb) 1 hr 3 hr 6 hr
6 hour
Temperature (ºC) Pressure Precipitation (cm)